Time;durP1;ratioP1;P1;durP2;ratioP2;P2;SDS_P1;SDS_P2;PMS_P1;PMS_P2;Temp;Humidity;BMP_temperature;BMP_pressure;BME280_temperature;BME280_humidity;BME280_pressure;Samples;Min_cycle;Max_cycle;Signal;HPM_P1;HPM_P2
2021/06/02 00:00:03;;;;;;;2.33;2.22;;;;;;;8.65;77.02;96066.53;5096038;57;20602;-76
2021/06/02 00:05:06;;;;;;;2.67;2.47;;;;;;;8.40;76.60;96064.00;5081893;58;20215;-76
2021/06/02 00:10:11;;;;;;;2.35;2.13;;;;;;;8.27;76.87;96060.59;5082204;58;20660;-77
2021/06/02 00:15:15;;;;;;;3.67;2.55;;;;;;;8.03;78.00;96062.28;5081839;58;20133;-76
2021/06/02 00:20:18;;;;;;;2.40;2.22;;;;;;;7.95;78.71;96070.06;5082448;58;20147;-76
2021/06/02 00:25:20;;;;;;;2.80;2.47;;;;;;;7.82;78.57;96071.38;5073489;58;20987;-76
2021/06/02 00:30:23;;;;;;;4.97;3.15;;;;;;;8.08;77.93;96064.47;5082317;58;20142;-76
2021/06/02 00:35:27;;;;;;;3.47;2.70;;;;;;;7.94;79.09;96068.53;5082144;58;20137;-76
2021/06/02 00:40:40;;;;;;;3.67;2.58;;;;;;;7.73;79.03;96049.31;5081881;58;20837;-76
2021/06/02 00:45:43;;;;;;;2.80;2.58;;;;;;;7.55;79.24;96060.22;5081818;58;20598;-77
2021/06/02 00:50:49;;;;;;;2.95;2.60;;;;;;;7.60;79.42;96051.38;5081748;58;20133;-76
2021/06/02 00:56:00;;;;;;;2.80;2.60;;;;;;;7.64;79.13;96047.28;5081605;58;20137;-76
2021/06/02 01:01:05;;;;;;;2.97;2.78;;;;;;;7.58;79.44;96062.03;5081693;58;20129;-76
2021/06/02 01:06:08;;;;;;;3.20;2.90;;;;;;;7.41;79.52;96044.22;5080820;58;20572;-76
2021/06/02 01:11:11;;;;;;;2.97;2.78;;;;;;;7.36;79.59;96040.06;5081305;58;20129;-76
2021/06/02 01:16:14;;;;;;;3.80;2.63;;;;;;;7.46;79.94;96047.19;5080753;58;20638;-77
2021/06/02 01:21:23;;;;;;;3.90;2.78;;;;;;;7.41;79.95;96055.22;5081966;58;20119;-76
2021/06/02 01:26:28;;;;;;;2.97;2.77;;;;;;;7.21;80.40;96045.28;5081180;58;20730;-75
2021/06/02 01:31:51;;;;;;;3.35;3.05;;;;;;;7.38;80.51;96053.34;5080937;58;20230;-76
2021/06/02 01:37:09;;;;;;;3.03;2.83;;;;;;;7.24;80.63;96051.88;5081142;58;20236;-76
2021/06/02 01:42:50;;;;;;;3.10;2.80;;;;;;;7.15;81.15;96046.31;5081169;58;20129;-76
2021/06/02 01:47:59;;;;;;;3.67;3.28;;;;;;;7.20;80.63;96051.25;5080912;58;20329;-76
2021/06/02 01:53:39;;;;;;;3.17;2.95;;;;;;;7.10;81.20;96044.16;5080647;58;20120;-76
2021/06/02 01:59:16;;;;;;;5.63;3.30;;;;;;;6.96;81.32;96039.94;5072621;58;20137;-76
2021/06/02 02:04:59;;;;;;;3.55;3.25;;;;;;;6.98;81.67;96034.75;5072581;58;20283;-76
2021/06/02 02:10:22;;;;;;;4.40;3.25;;;;;;;6.98;81.50;96039.47;5056651;58;20709;-76
2021/06/02 02:16:10;;;;;;;3.00;2.80;;;;;;;6.86;81.75;96032.03;5080455;58;20147;-76
2021/06/02 02:21:28;;;;;;;4.93;3.53;;;;;;;6.88;81.79;96029.59;5064629;58;20159;-76
2021/06/02 02:26:37;;;;;;;4.93;3.30;;;;;;;6.80;81.94;96033.81;5080455;58;20120;-76
2021/06/02 02:31:59;;;;;;;4.63;3.55;;;;;;;6.59;81.92;96034.53;5080157;58;20155;-76
2021/06/02 02:37:08;;;;;;;5.88;3.10;;;;;;;6.57;82.41;96051.44;5080345;58;20133;-76
2021/06/02 02:42:40;;;;;;;3.72;3.38;;;;;;;6.63;81.86;96048.91;5079392;58;20160;-76
2021/06/02 02:47:48;;;;;;;3.78;3.42;;;;;;;6.67;81.65;96058.56;5080268;58;20146;-76
2021/06/02 02:53:22;;;;;;;6.87;3.70;;;;;;;6.67;82.15;96063.31;5080464;58;20133;-76
2021/06/02 02:59:05;;;;;;;5.05;3.60;;;;;;;6.57;82.36;96065.19;5080036;58;20151;-76
2021/06/02 03:04:27;;;;;;;7.18;3.10;;;;;;;6.51;82.20;96064.22;5079799;58;20124;-76
2021/06/02 03:09:37;;;;;;;3.92;3.53;;;;;;;6.36;82.70;96058.41;5079944;58;20142;-76
2021/06/02 03:14:49;;;;;;;3.58;3.28;;;;;;;6.38;82.62;96057.94;5079557;58;20115;-76
2021/06/02 03:20:01;;;;;;;4.18;3.78;;;;;;;6.48;82.46;96063.13;5079552;58;20181;-76
2021/06/02 03:25:24;;;;;;;5.93;4.00;;;;;;;6.48;82.28;96059.59;5079470;58;20697;-76
2021/06/02 03:30:27;;;;;;;4.68;4.05;;;;;;;6.49;82.54;96074.84;5082099;58;20133;-76
2021/06/02 03:35:40;;;;;;;5.07;4.22;;;;;;;6.60;81.54;96071.78;5082473;58;20145;-76
2021/06/02 03:40:53;;;;;;;7.00;4.13;;;;;;;6.59;81.62;96075.72;5076323;58;20119;-76
2021/06/02 03:45:55;;;;;;;4.95;4.45;;;;;;;6.51;81.72;96094.41;5086774;58;20128;-76
2021/06/02 03:51:01;;;;;;;5.07;4.53;;;;;;;6.48;82.17;96087.03;5090912;58;20119;-76
2021/06/02 03:56:28;;;;;;;5.30;4.78;;;;;;;6.52;82.37;96095.94;5076309;58;20254;-75
2021/06/02 04:01:52;;;;;;;4.78;4.20;;;;;;;6.62;81.75;96094.81;5082581;58;20274;-76
2021/06/02 04:07:06;;;;;;;4.78;4.38;;;;;;;6.88;81.53;96099.03;5082515;58;20138;-76
2021/06/02 04:12:24;;;;;;;4.63;4.22;;;;;;;6.87;81.44;96100.28;5082142;58;20128;-76
2021/06/02 04:17:28;;;;;;;6.30;4.85;;;;;;;7.10;81.54;96116.34;5082543;58;20666;-76
2021/06/02 04:22:32;;;;;;;4.97;4.38;;;;;;;7.29;80.92;96108.25;5081784;58;20138;-77
2021/06/02 04:27:38;;;;;;;8.75;4.45;;;;;;;7.53;80.82;96123.88;5082109;58;20677;-76
2021/06/02 04:32:44;;;;;;;5.00;4.50;;;;;;;7.71;80.39;96129.50;5086302;58;20602;-77
2021/06/02 04:37:51;;;;;;;7.47;4.53;;;;;;;7.86;80.66;96122.28;5101472;58;20141;-76
2021/06/02 04:42:54;;;;;;;4.88;4.40;;;;;;;8.04;80.94;96135.38;5087229;58;20124;-76
2021/06/02 04:47:58;;;;;;;6.18;4.57;;;;;;;8.31;80.70;96132.81;5087623;58;20129;-77
2021/06/02 04:53:23;;;;;;;6.93;4.68;;;;;;;8.58;79.81;96130.16;5081718;58;20669;-76
2021/06/02 04:58:37;;;;;;;5.68;4.57;;;;;;;8.72;80.52;96137.09;5082597;58;20182;-76
2021/06/02 05:03:52;;;;;;;5.30;4.80;;;;;;;9.07;79.28;96140.38;5096485;58;20141;-77
2021/06/02 05:09:31;;;;;;;5.15;4.65;;;;;;;9.46;78.21;96138.75;5101156;58;20163;-77
2021/06/02 05:14:55;;;;;;;6.25;4.60;;;;;;;9.78;77.17;96144.44;5100888;58;20159;-74
2021/06/02 05:20:24;;;;;;;6.13;5.30;;;;;;;10.16;74.58;96143.16;5100855;58;20128;-74
2021/06/02 05:25:54;;;;;;;10.50;4.85;;;;;;;10.59;72.50;96131.66;5100727;58;20136;-74
2021/06/02 05:31:12;;;;;;;4.90;4.18;;;;;;;10.90;71.73;96137.66;5100741;58;20111;-74
2021/06/02 05:36:31;;;;;;;9.55;4.80;;;;;;;11.24;70.26;96134.41;5100634;58;20145;-76
2021/06/02 05:41:42;;;;;;;4.85;4.32;;;;;;;11.43;67.96;96138.59;5100676;58;20133;-74
2021/06/02 05:47:10;;;;;;;5.57;4.03;;;;;;;11.74;67.95;96145.75;5100697;58;20659;-74
2021/06/02 05:52:30;;;;;;;9.82;4.30;;;;;;;11.98;66.73;96140.94;5100036;58;20123;-74
2021/06/02 05:57:47;;;;;;;9.93;3.88;;;;;;;12.44;65.33;96144.00;5100172;58;20123;-76
2021/06/02 06:03:10;;;;;;;12.10;4.07;;;;;;;12.72;62.65;96151.53;5099500;58;20562;-76
2021/06/02 06:08:19;;;;;;;5.00;4.03;;;;;;;12.78;64.31;96149.59;5100073;58;20557;-73
2021/06/02 06:13:50;;;;;;;4.30;3.93;;;;;;;13.06;63.44;96150.03;5097131;58;20131;-75
2021/06/02 06:19:02;;;;;;;4.88;3.53;;;;;;;13.17;62.17;96150.19;5097503;58;20676;-76
2021/06/02 06:24:10;;;;;;;4.13;3.47;;;;;;;13.59;60.13;96155.31;5099226;58;20136;-76
2021/06/02 06:29:28;;;;;;;4.88;3.42;;;;;;;13.66;58.47;96161.19;5097390;58;20163;-76
2021/06/02 06:34:33;;;;;;;3.88;3.45;;;;;;;13.93;58.68;96153.69;5098661;58;20834;-76
2021/06/02 06:39:53;;;;;;;5.00;4.47;;;;;;;14.13;59.20;96159.22;5100030;58;20140;-76
2021/06/02 06:44:59;;;;;;;4.97;3.88;;;;;;;14.53;60.38;96166.69;5100055;58;20123;-77
2021/06/02 06:50:07;;;;;;;4.35;3.95;;;;;;;14.75;57.87;96162.06;5100060;58;20123;-76
2021/06/02 06:55:11;;;;;;;6.07;4.20;;;;;;;14.69;58.84;96169.63;5099642;58;20124;-76
2021/06/02 07:00:15;;;;;;;9.63;4.57;;;;;;;14.63;57.68;96182.69;5099821;58;20137;-76
2021/06/02 07:05:19;;;;;;;5.00;4.50;;;;;;;14.65;57.78;96185.00;5092953;58;20128;-76
2021/06/02 07:10:22;;;;;;;5.45;4.10;;;;;;;15.41;56.98;96186.06;5079833;58;20644;-77
2021/06/02 07:15:26;;;;;;;5.18;4.65;;;;;;;15.45;56.51;96178.25;5079680;58;20137;-76
2021/06/02 07:20:30;;;;;;;5.35;4.68;;;;;;;15.34;56.62;96181.72;5079519;58;20155;-76
2021/06/02 07:25:33;;;;;;;5.18;4.70;;;;;;;15.53;55.77;96174.53;5079408;58;20252;-76
2021/06/02 07:30:37;;;;;;;5.57;3.92;;;;;;;16.28;54.17;96181.41;5079553;58;20155;-76
2021/06/02 07:35:39;;;;;;;5.60;4.70;;;;;;;16.19;54.57;96181.66;5079467;58;20147;-76
2021/06/02 07:40:42;;;;;;;3.97;3.67;;;;;;;16.78;51.24;96181.53;5079443;58;20661;-78
2021/06/02 07:45:45;;;;;;;5.15;3.90;;;;;;;17.01;50.07;96189.38;5087402;58;20111;-81
2021/06/02 07:50:47;;;;;;;4.57;4.10;;;;;;;17.48;48.81;96187.53;5092217;58;20132;-80
2021/06/02 07:55:50;;;;;;;4.90;3.90;;;;;;;18.60;45.63;96194.25;5102988;58;20123;-79
2021/06/02 08:00:53;;;;;;;3.72;3.42;;;;;;;20.29;41.68;96185.25;5094641;58;20136;-79
2021/06/02 08:05:56;;;;;;;4.57;4.13;;;;;;;19.32;44.60;96190.88;5100182;58;21064;-77
2021/06/02 08:10:58;;;;;;;4.45;4.05;;;;;;;20.06;45.01;96181.22;5098659;58;20123;-77
2021/06/02 08:16:02;;;;;;;4.30;3.80;;;;;;;21.93;42.00;96188.78;5102156;58;20123;-79
2021/06/02 08:21:04;;;;;;;5.30;4.45;;;;;;;21.51;40.65;96189.03;5098500;58;20124;-78
2021/06/02 08:26:08;;;;;;;6.90;3.72;;;;;;;22.67;40.29;96181.84;5091403;58;20142;-79
2021/06/02 08:31:10;;;;;;;7.88;3.60;;;;;;;23.54;39.51;96199.25;5111117;58;20110;-79
2021/06/02 08:36:13;;;;;;;4.90;3.80;;;;;;;23.09;43.56;96196.00;5122560;58;20119;-79
2021/06/02 08:41:15;;;;;;;4.70;3.58;;;;;;;24.75;37.39;96205.63;5116558;58;20119;-79
2021/06/02 08:46:19;;;;;;;3.83;3.53;;;;;;;24.56;35.75;96205.91;5099901;58;20136;-79
2021/06/02 08:51:41;;;;;;;3.95;3.28;;;;;;;24.78;36.34;96207.38;5095710;58;20812;-79
2021/06/02 08:56:44;;;;;;;3.55;2.92;;;;;;;25.44;34.12;96196.75;5105771;58;20137;-78
2021/06/02 09:01:49;;;;;;;5.28;3.30;;;;;;;24.39;38.54;96193.59;5107972;58;20141;-79
2021/06/02 09:06:51;;;;;;;4.32;3.03;;;;;;;25.33;33.57;96173.75;5111919;58;20132;-78
2021/06/02 09:11:54;;;;;;;2.72;2.45;;;;;;;26.52;34.63;96201.72;5110479;58;20133;-79
2021/06/02 09:17:06;;;;;;;3.03;2.75;;;;;;;26.84;31.31;96211.09;5104737;57;20289;-79
2021/06/02 09:22:11;;;;;;;4.22;3.35;;;;;;;27.35;30.62;96202.06;5112363;58;20881;-79
2021/06/02 09:27:15;;;;;;;5.63;2.80;;;;;;;27.81;29.18;96211.03;5104146;58;20114;-79
2021/06/02 09:32:24;;;;;;;2.85;2.65;;;;;;;26.93;32.95;96206.88;5112326;58;20229;-79
2021/06/02 09:37:26;;;;;;;4.00;3.05;;;;;;;27.05;32.25;96212.88;5113166;58;20144;-79
2021/06/02 09:42:30;;;;;;;3.47;2.75;;;;;;;27.39;32.95;96202.44;5111754;58;20265;-78
2021/06/02 09:47:47;;;;;;;6.10;3.30;;;;;;;25.29;32.96;96201.63;5112309;58;20133;-78
2021/06/02 09:52:52;;;;;;;3.50;3.20;;;;;;;26.70;33.06;96212.63;5107566;58;20834;-79
2021/06/02 09:58:00;;;;;;;4.90;3.60;;;;;;;26.36;31.78;96218.03;5112562;58;20132;-78
2021/06/02 10:03:13;;;;;;;3.35;3.10;;;;;;;26.55;30.88;96218.34;5101992;58;20123;-78
2021/06/02 10:08:35;;;;;;;6.47;3.28;;;;;;;25.08;34.23;96224.41;5109666;58;20127;-79
2021/06/02 10:13:39;;;;;;;3.58;3.28;;;;;;;26.04;35.24;96217.88;5109333;58;20124;-79
2021/06/02 10:18:46;;;;;;;4.03;3.15;;;;;;;26.15;31.18;96221.09;5109277;58;20539;-79
2021/06/02 10:23:49;;;;;;;4.63;3.00;;;;;;;25.20;33.10;96219.16;5100463;58;20133;-78
2021/06/02 10:28:52;;;;;;;8.13;3.40;;;;;;;25.66;32.18;96225.63;5108775;58;20127;-78
2021/06/02 10:33:55;;;;;;;3.58;2.42;;;;;;;27.70;32.78;96228.53;5108205;58;20128;-78
2021/06/02 10:39:00;;;;;;;3.67;2.55;;;;;;;27.32;30.58;96220.25;5108273;58;20705;-78
2021/06/02 10:44:17;;;;;;;4.72;2.78;;;;;;;27.78;30.47;96220.69;5108762;58;20128;-79
2021/06/02 10:49:27;;;;;;;4.43;2.53;;;;;;;28.13;28.52;96219.47;5099803;58;20127;-79
2021/06/02 10:54:31;;;;;;;3.92;2.25;;;;;;;28.74;28.29;96225.28;5108389;58;20128;-79
2021/06/02 10:59:35;;;;;;;9.48;2.90;;;;;;;28.34;29.31;96213.38;5106093;58;20242;-79
2021/06/02 11:04:59;;;;;;;3.55;2.90;;;;;;;27.42;29.54;96223.25;5106043;58;20132;-79
2021/06/02 11:10:14;;;;;;;4.05;2.83;;;;;;;27.64;29.85;96222.31;5107442;58;20590;-79
2021/06/02 11:15:41;;;;;;;3.22;2.90;;;;;;;28.73;27.55;96225.84;5107765;58;20127;-78
2021/06/02 11:21:10;;;;;;;4.70;3.15;;;;;;;27.88;29.55;96224.41;5105786;58;20150;-79
2021/06/02 11:26:26;;;;;;;4.80;3.28;;;;;;;27.40;28.50;96225.91;5103015;58;20127;-78
2021/06/02 11:31:31;;;;;;;4.43;3.15;;;;;;;28.54;27.19;96215.03;5109737;58;20231;-78
2021/06/02 11:36:54;;;;;;;3.70;3.28;;;;;;;29.31;29.55;96227.03;5108720;58;20132;-78
2021/06/02 11:41:58;;;;;;;6.63;3.13;;;;;;;28.50;27.73;96222.47;5107361;58;20673;-79
2021/06/02 11:47:01;;;;;;;5.22;3.80;;;;;;;27.17;28.70;96209.00;5107129;58;20127;-78
2021/06/02 11:52:07;;;;;;;5.90;3.22;;;;;;;29.04;26.83;96209.88;5102534;58;20136;-79
2021/06/02 11:57:27;;;;;;;2.70;2.50;;;;;;;30.18;28.33;96206.06;5097438;58;20119;-79
2021/06/02 12:02:33;;;;;;;4.35;2.70;;;;;;;29.08;27.45;96213.81;5106589;58;20141;-79
2021/06/02 12:07:45;;;;;;;3.85;2.70;;;;;;;29.05;23.92;96211.41;5111522;58;20233;-79
2021/06/02 12:12:48;;;;;;;4.32;2.53;;;;;;;28.74;24.28;96213.91;5109263;58;20149;-83
2021/06/02 12:17:52;;;;;;;3.53;2.80;;;;;;;26.63;27.39;96202.06;5107471;58;20123;-79
2021/06/02 12:22:55;;;;;;;3.50;2.92;;;;;;;26.56;27.59;96210.59;5110126;58;20177;-79
2021/06/02 12:28:01;;;;;;;4.15;2.90;;;;;;;27.24;26.46;96207.44;5110141;58;20141;-78
2021/06/02 12:33:06;;;;;;;3.40;2.63;;;;;;;28.22;25.86;96209.53;5107238;58;20137;-78
2021/06/02 12:38:28;;;;;;;2.30;2.10;;;;;;;29.32;26.01;96217.13;5108704;58;20106;-83
2021/06/02 12:43:39;;;;;;;2.90;2.70;;;;;;;29.13;24.09;96217.00;5107591;58;20123;-79
2021/06/02 12:48:43;;;;;;;2.22;1.90;;;;;;;27.79;27.08;96213.69;5106257;57;20133;-78
2021/06/02 12:53:47;;;;;;;2.60;2.40;;;;;;;27.42;25.67;96201.31;5097584;58;20158;-79
2021/06/02 12:58:55;;;;;;;3.85;2.08;;;;;;;29.68;26.02;96206.50;5107209;58;20154;-79
2021/06/02 13:04:02;;;;;;;2.70;2.50;;;;;;;29.58;23.77;96211.41;5114114;58;20137;-79
2021/06/02 13:09:10;;;;;;;5.82;2.17;;;;;;;28.60;26.74;96209.91;5114272;58;20118;-79
2021/06/02 13:14:12;;;;;;;6.17;2.07;;;;;;;27.75;24.87;96204.81;5113131;58;20617;-79
2021/06/02 13:19:15;;;;;;;5.43;2.45;;;;;;;27.95;26.53;96217.91;5111910;58;20276;-80
2021/06/02 13:24:22;;;;;;;3.08;1.90;;;;;;;28.11;26.21;96199.38;5115859;58;20110;-80
2021/06/02 13:29:24;;;;;;;5.05;2.22;;;;;;;30.12;23.99;96199.91;5126455;57;20140;-81
2021/06/02 13:34:38;;;;;;;2.95;2.28;;;;;;;29.21;25.27;96212.75;5120644;58;20139;-79
2021/06/02 13:40:01;;;;;;;5.72;2.20;;;;;;;29.44;24.25;96209.56;5111958;58;20158;-79
2021/06/02 13:45:05;;;;;;;3.47;2.72;;;;;;;29.20;22.13;96211.22;5102179;58;20646;-79
2021/06/02 13:50:15;;;;;;;2.58;2.20;;;;;;;29.56;23.51;96207.66;5109147;58;20118;-78
2021/06/02 13:55:18;;;;;;;3.45;1.70;;;;;;;29.05;24.57;96217.84;5107558;58;20118;-78
2021/06/02 14:00:20;;;;;;;3.17;2.05;;;;;;;28.85;24.06;96204.09;5107045;58;20150;-78
2021/06/02 14:05:23;;;;;;;2.40;1.90;;;;;;;29.65;24.98;96201.25;5101556;58;20120;-78
2021/06/02 14:10:26;;;;;;;3.50;2.05;;;;;;;29.13;23.30;96214.16;5098382;58;20132;-76
2021/06/02 14:15:28;;;;;;;2.88;2.00;;;;;;;28.66;22.64;96209.63;5100544;58;20163;-76
2021/06/02 14:20:31;;;;;;;4.00;2.00;;;;;;;29.09;22.39;96212.50;5099271;58;20709;-76
2021/06/02 14:25:34;;;;;;;3.10;2.22;;;;;;;27.93;24.63;96206.34;5099906;58;20128;-77
2021/06/02 14:30:37;;;;;;;1.95;1.80;;;;;;;28.59;24.67;96205.53;5094982;57;20754;-77
2021/06/02 14:35:39;;;;;;;2.95;2.10;;;;;;;28.55;24.19;96210.09;5099473;58;20150;-76
2021/06/02 14:40:42;;;;;;;4.30;2.30;;;;;;;27.50;24.62;96209.78;5091298;58;20273;-77
2021/06/02 14:45:45;;;;;;;4.00;2.15;;;;;;;27.77;24.36;96212.78;5099406;58;20137;-77
2021/06/02 14:50:47;;;;;;;2.05;1.88;;;;;;;28.30;23.68;96213.78;5099466;58;20669;-77
2021/06/02 14:55:50;;;;;;;3.40;2.20;;;;;;;27.80;26.54;96212.34;5084331;58;20688;-77
2021/06/02 15:00:53;;;;;;;2.85;1.52;;;;;;;28.67;23.57;96206.22;5099869;58;20132;-77
2021/06/02 15:05:56;;;;;;;2.85;1.73;;;;;;;27.10;25.81;96203.38;5099320;58;20171;-77
2021/06/02 15:10:58;;;;;;;6.18;1.92;;;;;;;27.35;24.50;96202.06;5099086;58;20128;-77
2021/06/02 15:16:02;;;;;;;1.83;1.63;;;;;;;27.18;24.42;96198.41;5097705;58;20127;-77
2021/06/02 15:21:05;;;;;;;1.63;1.52;;;;;;;28.03;24.09;96201.56;5097361;57;20188;-77
2021/06/02 15:26:09;;;;;;;1.60;1.50;;;;;;;27.93;24.95;96197.09;5095260;58;20739;-77
2021/06/02 15:31:13;;;;;;;4.38;1.90;;;;;;;27.56;26.23;96188.31;5097136;58;20119;-76
2021/06/02 15:36:16;;;;;;;2.53;2.25;;;;;;;26.45;24.60;96189.09;5098965;58;20135;-76
2021/06/02 15:41:18;;;;;;;2.00;1.75;;;;;;;25.66;26.47;96194.50;5098856;58;20158;-77
2021/06/02 15:46:22;;;;;;;2.63;1.63;;;;;;;25.58;27.66;96191.66;5089816;58;20119;-76
2021/06/02 15:51:25;;;;;;;1.88;1.58;;;;;;;25.62;28.09;96167.31;5098500;58;20119;-77
2021/06/02 15:56:30;;;;;;;3.97;1.75;;;;;;;25.25;27.15;96184.28;5098696;58;20160;-77
2021/06/02 16:01:33;;;;;;;1.30;1.30;;;;;;;25.46;27.16;96185.66;5102177;58;20142;-81
2021/06/02 16:06:36;;;;;;;1.70;1.60;;;;;;;25.43;27.06;96174.69;5110080;58;20656;-80
2021/06/02 16:11:38;;;;;;;2.38;1.70;;;;;;;24.88;27.36;96186.47;5103848;58;20128;-78
2021/06/02 16:16:41;;;;;;;2.03;1.50;;;;;;;25.00;24.66;96175.56;5096824;58;20123;-78
2021/06/02 16:21:44;;;;;;;2.45;1.98;;;;;;;24.74;26.69;96184.34;5093563;58;20579;-78
2021/06/02 16:26:49;;;;;;;1.77;1.67;;;;;;;24.64;25.60;96184.13;5096670;58;20123;-76
2021/06/02 16:31:52;;;;;;;1.40;1.40;;;;;;;24.44;24.16;96173.69;5098011;58;20641;-79
2021/06/02 16:36:55;;;;;;;1.90;1.80;;;;;;;24.27;25.60;96187.53;5098387;58;20128;-79
2021/06/02 16:41:58;;;;;;;1.98;1.77;;;;;;;24.58;26.37;96174.31;5101402;58;20222;-77
2021/06/02 16:47:02;;;;;;;1.73;1.63;;;;;;;24.34;26.81;96186.03;5100681;58;20119;-78
2021/06/02 16:52:06;;;;;;;3.15;1.70;;;;;;;24.40;27.52;96192.31;5101313;58;20133;-77
2021/06/02 16:57:09;;;;;;;1.90;1.80;;;;;;;24.26;27.39;96202.97;5089790;58;20109;-78
2021/06/02 17:02:19;;;;;;;2.05;1.70;;;;;;;24.15;26.98;96195.56;5100538;58;20123;-76
2021/06/02 17:07:22;;;;;;;1.75;1.65;;;;;;;24.62;26.46;96200.13;5102224;58;20136;-77
2021/06/02 17:23:44;;;;;;;2.85;1.88;;;;;;;24.06;29.25;96209.44;5324046;46;20149;-79
2021/06/02 17:28:49;;;;;;;3.30;1.80;;;;;;;24.14;29.73;96213.81;5087493;58;20120;-78
2021/06/02 17:33:52;;;;;;;2.42;1.90;;;;;;;24.15;28.69;96220.22;5083373;58;20129;-78
2021/06/02 17:38:55;;;;;;;3.03;1.80;;;;;;;24.18;28.43;96217.03;5082083;58;20132;-79
2021/06/02 17:44:02;;;;;;;1.70;1.60;;;;;;;24.93;27.93;96216.66;5082519;58;20128;-78
2021/06/02 17:49:06;;;;;;;1.40;1.30;;;;;;;24.90;25.65;96214.94;5084347;58;20143;-78
2021/06/02 17:54:10;;;;;;;6.18;1.75;;;;;;;24.76;25.94;96221.31;5083556;58;20124;-77
2021/06/02 17:59:13;;;;;;;1.67;1.58;;;;;;;24.59;27.66;96235.13;5082050;58;20228;-78
2021/06/02 18:04:17;;;;;;;3.33;1.95;;;;;;;23.85;30.17;96237.69;5080673;58;20119;-78
2021/06/02 18:09:20;;;;;;;1.90;1.80;;;;;;;22.99;32.17;96237.22;5080719;58;20133;-78
2021/06/02 18:14:23;;;;;;;4.00;1.88;;;;;;;22.25;41.57;96244.94;5080335;58;20155;-79
2021/06/02 18:19:29;;;;;;;5.80;2.00;;;;;;;21.79;46.29;96249.09;5087075;58;20137;-76
2021/06/02 18:24:32;;;;;;;4.05;2.00;;;;;;;21.17;46.22;96254.22;5104026;58;20124;-77
2021/06/02 18:29:39;;;;;;;3.17;2.03;;;;;;;20.43;49.43;96257.03;5117452;58;20124;-78
2021/06/02 18:34:42;;;;;;;2.35;1.83;;;;;;;19.96;48.86;96254.50;5098538;58;20127;-77
2021/06/02 18:39:48;;;;;;;3.55;1.73;;;;;;;19.71;51.62;96260.63;5093561;58;20136;-77
2021/06/02 18:44:51;;;;;;;1.95;1.85;;;;;;;19.30;55.30;96274.69;5084977;58;20128;-77
2021/06/02 18:49:54;;;;;;;2.17;2.00;;;;;;;18.95;56.65;96269.84;5092456;58;20137;-76
2021/06/02 18:54:56;;;;;;;1.98;1.75;;;;;;;18.57;55.33;96282.03;5092056;58;20664;-77
2021/06/02 18:59:59;;;;;;;1.80;1.70;;;;;;;18.07;56.30;96273.81;5091391;58;20135;-77
2021/06/02 19:05:03;;;;;;;3.55;1.75;;;;;;;17.87;57.31;96293.69;5084098;58;20128;-77
2021/06/02 19:10:06;;;;;;;3.60;1.98;;;;;;;17.49;58.30;96288.88;5084021;58;20123;-77
2021/06/02 19:15:10;;;;;;;3.58;2.00;;;;;;;17.41;59.15;96310.22;5092849;58;20163;-77
2021/06/02 19:20:13;;;;;;;2.95;2.20;;;;;;;17.21;60.16;96311.22;5092365;58;20122;-77
2021/06/02 19:25:16;;;;;;;3.20;2.08;;;;;;;17.00;61.20;96323.88;5092865;58;20109;-77
2021/06/02 19:30:19;;;;;;;2.75;1.95;;;;;;;16.80;58.62;96341.59;5088674;58;20218;-77
2021/06/02 19:35:22;;;;;;;3.00;2.17;;;;;;;16.71;57.25;96336.25;5092342;58;20123;-76
2021/06/02 19:40:25;;;;;;;2.75;1.98;;;;;;;16.28;59.79;96349.47;5089659;58;20176;-76
2021/06/02 19:45:29;;;;;;;3.35;2.00;;;;;;;16.08;61.67;96360.00;5090393;58;20144;-76
2021/06/02 19:50:31;;;;;;;1.85;1.75;;;;;;;15.96;61.67;96363.97;5091457;58;20142;-75
2021/06/02 19:55:35;;;;;;;2.30;2.10;;;;;;;15.75;63.30;96382.81;5094595;58;20118;-76
2021/06/02 20:00:38;;;;;;;5.10;3.78;;;;;;;15.54;63.46;96378.59;5092090;58;20132;-75
2021/06/02 20:05:41;;;;;;;6.70;3.55;;;;;;;15.39;64.50;96389.84;5079139;58;20125;-75
2021/06/02 20:10:43;;;;;;;7.10;2.80;;;;;;;15.24;65.21;96388.44;5079247;58;20146;-75
2021/06/02 20:15:46;;;;;;;2.70;2.08;;;;;;;15.18;65.29;96393.94;5082683;58;20146;-75
2021/06/02 20:20:51;;;;;;;2.58;2.38;;;;;;;15.06;66.00;96403.44;5081982;58;20150;-75
2021/06/02 20:25:53;;;;;;;2.75;2.20;;;;;;;14.87;66.12;96404.97;5081772;58;20138;-75
2021/06/02 20:35:59;;;;;;;2.90;2.22;;;;;;;14.55;67.44;96412.44;5096401;58;20133;-75
2021/06/02 20:41:02;;;;;;;6.55;2.67;;;;;;;14.56;67.56;96413.97;5101381;58;20132;-75
2021/06/02 20:46:05;;;;;;;5.13;2.33;;;;;;;14.38;68.71;96419.81;5101290;58;20140;-76
2021/06/02 20:51:07;;;;;;;4.80;2.60;;;;;;;14.31;69.28;96420.94;5101604;58;20720;-76
2021/06/02 20:56:10;;;;;;;2.60;2.35;;;;;;;14.15;70.00;96429.81;5101107;58;20137;-75
2021/06/02 21:01:13;;;;;;;5.72;3.03;;;;;;;13.97;70.49;96423.72;5100527;58;20619;-75
2021/06/02 21:06:15;;;;;;;4.65;3.00;;;;;;;13.98;69.33;96425.22;5101356;58;20224;-75
2021/06/02 21:11:18;;;;;;;3.83;2.72;;;;;;;14.00;68.78;96429.06;5100869;58;20123;-74
2021/06/02 21:16:20;;;;;;;2.60;2.40;;;;;;;13.77;68.80;96443.88;5100824;58;20136;-75
2021/06/02 21:21:24;;;;;;;3.17;2.92;;;;;;;13.51;69.95;96446.44;5091844;58;20137;-76
2021/06/02 21:26:27;;;;;;;2.88;2.67;;;;;;;13.36;71.32;96453.25;5081073;58;20124;-75
2021/06/02 21:31:31;;;;;;;4.22;3.20;;;;;;;13.24;72.20;96452.25;5080901;58;20129;-75
2021/06/02 21:36:33;;;;;;;4.28;2.78;;;;;;;13.08;72.62;96455.50;5081081;58;20128;-76
2021/06/02 21:41:36;;;;;;;3.28;2.97;;;;;;;13.08;72.71;96451.94;5080717;58;20129;-76
2021/06/02 21:46:39;;;;;;;3.83;3.33;;;;;;;13.13;73.04;96451.28;5081207;58;20128;-75
2021/06/02 21:51:42;;;;;;;5.03;3.53;;;;;;;13.36;72.19;96459.56;5080662;58;20129;-75
2021/06/02 21:56:45;;;;;;;6.03;2.95;;;;;;;13.06;72.09;96465.53;5081115;58;20124;-75
2021/06/02 22:01:48;;;;;;;2.78;2.58;;;;;;;12.92;72.30;96467.75;5080341;58;20677;-75
2021/06/02 22:06:51;;;;;;;4.40;2.80;;;;;;;12.67;72.88;96471.03;5080434;58;20124;-75
2021/06/02 22:11:53;;;;;;;3.45;2.90;;;;;;;12.50;72.64;96483.00;5080745;58;20128;-75
2021/06/02 22:16:58;;;;;;;4.10;2.83;;;;;;;12.43;73.06;96478.56;5080959;58;20120;-76
2021/06/02 22:22:00;;;;;;;4.57;3.63;;;;;;;12.42;73.71;96477.03;5079645;58;20146;-75
2021/06/02 22:27:03;;;;;;;4.45;3.35;;;;;;;12.64;73.01;96485.06;5079012;58;20686;-74
2021/06/02 22:32:07;;;;;;;4.15;3.70;;;;;;;12.53;74.14;96491.13;5078445;58;20129;-74
2021/06/02 22:37:09;;;;;;;4.70;3.60;;;;;;;12.36;74.74;96492.00;5078448;58;20125;-76
2021/06/02 22:42:12;;;;;;;4.95;3.50;;;;;;;12.21;74.13;96498.22;5085444;58;20131;-75
2021/06/02 22:47:15;;;;;;;4.90;3.42;;;;;;;12.20;74.97;96501.47;5088040;58;20119;-74
2021/06/02 22:52:17;;;;;;;4.05;3.70;;;;;;;12.18;74.98;96498.41;5082386;58;20147;-76
2021/06/02 22:57:20;;;;;;;5.60;3.75;;;;;;;12.06;75.54;96491.06;5092233;58;20129;-74
2021/06/02 23:02:23;;;;;;;4.22;3.30;;;;;;;11.89;75.98;96487.13;5096748;58;20253;-75
2021/06/02 23:07:25;;;;;;;3.90;3.47;;;;;;;11.93;75.24;96507.09;5096662;58;20115;-74
2021/06/02 23:12:28;;;;;;;3.92;3.47;;;;;;;11.90;75.93;96506.03;5087519;58;20123;-76
2021/06/02 23:17:48;;;;;;;4.65;3.47;;;;;;;11.70;76.92;96507.78;5087176;58;20142;-75
2021/06/02 23:22:52;;;;;;;4.65;4.25;;;;;;;11.78;77.04;96515.28;5092350;58;20224;-75
2021/06/02 23:27:55;;;;;;;4.32;3.90;;;;;;;11.85;76.58;96508.69;5094801;58;20120;-76
2021/06/02 23:33:00;;;;;;;4.05;3.63;;;;;;;11.89;76.15;96517.59;5084443;58;20133;-76
2021/06/02 23:38:03;;;;;;;4.78;4.10;;;;;;;11.81;76.53;96514.38;5080131;58;20142;-75
2021/06/02 23:43:06;;;;;;;4.28;3.75;;;;;;;11.74;76.77;96508.38;5079358;58;20224;-75
2021/06/02 23:48:09;;;;;;;4.00;3.70;;;;;;;11.74;76.19;96514.69;5082136;58;20133;-75
2021/06/02 23:53:12;;;;;;;5.20;4.47;;;;;;;11.60;77.22;96517.31;5081410;58;20141;-75
2021/06/02 23:58:16;;;;;;;4.40;3.95;;;;;;;11.59;77.11;96508.25;5082945;58;20312;-75
